Београд, Serbia

29. јун 2017, 16:15 CEST (GMT +0200)
IJUU017E2 | | Change Station

Надм.вис. 78 ft 44.87 °N, 20.67 °E | Updated 9 seconds ago

Ведро
Ведро
89.6 °F
Субјективни осећај 86 °F
С
18.4
Ветар Променљив Ветар из Северни
Gusts 18.4 mph

Данас
Макс. -- | Мин. -- °F
--% Вероватноћа за падавине
Јуче
Макс. -- | Мин. -- °F
Precip. -- инч
Притисак 29.65 инч
Видљивост -9999.0 миља
Облаци
Топлотни индекс 86 °F
Тачка росе 48 °F
Влажност ваздуха 24%
Киша 0.00 инч
Висина снега Није доступно.
4:53 AM 8:27 PM
Прва четвртина, 35% visible
METAR LYBE 291400Z 30012KT CAVOK 32/17 Q1004 NOSIG
Притисак 29.65 инч
Видљивост -9999.0 миља
Облаци
Топлотни индекс 86 °F
Тачка росе 48 °F
Влажност ваздуха 24%
Киша 0.00 инч
Висина снега Није доступно.
4:53 AM 8:27 PM
Прва четвртина, 35% visible
METAR LYBE 291400Z 30012KT CAVOK 32/17 Q1004 NOSIG

Get Severe Weather Alerts

Thanks for signing up!

Be on the lookout for a verification email in your inbox.

You'll start receiving the daily forecast at 6 AM.

×

10-Day Weather Forecast

×

Almanac

Астрономија

Jun. 29, 2017 Излазак Залазак
Тренутно време
Цивилни сумрак
Наутички сумрак
Астрономски сумрак
Месец
Трајање видљиве светлости
Обданица
Tomorrow will be .
, % of the Moon is Illuminated

Данашњи екстреми

Највише Најниже

Community

Category 6

Welcome to Category 6. This is the collective home for Weather Underground's featured writeups by Dr. Jeff Masters (right), Bob Henson (left), Chris Burt, and other regular contributors.

Nearby

Квалитет ваздуха (AQ)

  Квалитет ваздуха (AQ) Индекс AQ Загађење
Not available.

Висина снега

станица Висина снега Висина

Земљотрес

Место Удаљеност Магнитуда Време и датум
Минимална магнитуда која се објављује је 2.5

Темп. воде у приобаљу

Место Температура

Stations

Оближње метео-станице

Локација станице Темп. Субјективни осећај Тачка росе Влажност ваздуха Ветар Precip. Надм.вис. Ажурирано Тип